sensor_id;sensor_type;location;lat;lon;timestamp;P1;durP1;ratioP1;P2;durP2;ratioP2
22359;SDS011;11347;52.030;4.690;2022-07-06T00:00:52;2.87;;;0.60;;
22359;SDS011;11347;52.030;4.690;2022-07-06T00:03:17;2.40;;;0.50;;
22359;SDS011;11347;52.030;4.690;2022-07-06T00:05:43;2.40;;;0.60;;
22359;SDS011;11347;52.030;4.690;2022-07-06T00:08:08;2.00;;;0.50;;
22359;SDS011;11347;52.030;4.690;2022-07-06T00:10:34;1.77;;;0.40;;
22359;SDS011;11347;52.030;4.690;2022-07-06T00:13:00;1.40;;;0.53;;
22359;SDS011;11347;52.030;4.690;2022-07-06T00:15:25;1.13;;;0.60;;
22359;SDS011;11347;52.030;4.690;2022-07-06T00:17:51;1.97;;;0.50;;
22359;SDS011;11347;52.030;4.690;2022-07-06T00:20:16;3.03;;;0.70;;
22359;SDS011;11347;52.030;4.690;2022-07-06T00:22:42;2.60;;;0.50;;
22359;SDS011;11347;52.030;4.690;2022-07-06T00:25:08;1.33;;;0.50;;
22359;SDS011;11347;52.030;4.690;2022-07-06T00:27:34;1.30;;;0.53;;
22359;SDS011;11347;52.030;4.690;2022-07-06T00:29:59;1.47;;;0.53;;
22359;SDS011;11347;52.030;4.690;2022-07-06T00:32:25;3.33;;;0.60;;
22359;SDS011;11347;52.030;4.690;2022-07-06T00:34:52;1.80;;;0.50;;
22359;SDS011;11347;52.030;4.690;2022-07-06T00:37:17;2.90;;;0.60;;
22359;SDS011;11347;52.030;4.690;2022-07-06T00:39:43;1.70;;;0.50;;
22359;SDS011;11347;52.030;4.690;2022-07-06T00:42:09;1.77;;;0.50;;
22359;SDS011;11347;52.030;4.690;2022-07-06T00:44:34;1.70;;;0.50;;
22359;SDS011;11347;52.030;4.690;2022-07-06T00:47:00;3.17;;;0.53;;
22359;SDS011;11347;52.030;4.690;2022-07-06T00:49:25;1.80;;;0.43;;
22359;SDS011;11347;52.030;4.690;2022-07-06T00:52:10;1.57;;;0.40;;
22359;SDS011;11347;52.030;4.690;2022-07-06T00:54:36;2.63;;;0.60;;
22359;SDS011;11347;52.030;4.690;2022-07-06T00:57:02;3.00;;;0.70;;
22359;SDS011;11347;52.030;4.690;2022-07-06T00:59:28;5.10;;;0.50;;
22359;SDS011;11347;52.030;4.690;2022-07-06T01:01:54;1.03;;;0.43;;
22359;SDS011;11347;52.030;4.690;2022-07-06T01:04:19;2.10;;;0.60;;
22359;SDS011;11347;52.030;4.690;2022-07-06T01:06:45;1.77;;;0.70;;
22359;SDS011;11347;52.030;4.690;2022-07-06T01:09:11;1.20;;;0.50;;
22359;SDS011;11347;52.030;4.690;2022-07-06T01:11:37;1.53;;;0.50;;
22359;SDS011;11347;52.030;4.690;2022-07-06T01:14:03;3.90;;;0.70;;
22359;SDS011;11347;52.030;4.690;2022-07-06T01:16:28;1.83;;;0.50;;
22359;SDS011;11347;52.030;4.690;2022-07-06T01:18:54;4.17;;;0.73;;
22359;SDS011;11347;52.030;4.690;2022-07-06T01:21:20;1.07;;;0.53;;
22359;SDS011;11347;52.030;4.690;2022-07-06T01:23:46;2.43;;;0.70;;
22359;SDS011;11347;52.030;4.690;2022-07-06T01:26:14;3.30;;;0.60;;
22359;SDS011;11347;52.030;4.690;2022-07-06T01:28:42;1.80;;;0.57;;
22359;SDS011;11347;52.030;4.690;2022-07-06T01:31:14;1.20;;;0.70;;
22359;SDS011;11347;52.030;4.690;2022-07-06T01:33:43;1.13;;;0.40;;
22359;SDS011;11347;52.030;4.690;2022-07-06T01:36:09;3.17;;;0.50;;
22359;SDS011;11347;52.030;4.690;2022-07-06T01:38:54;1.50;;;0.53;;
22359;SDS011;11347;52.030;4.690;2022-07-06T01:41:23;2.60;;;0.60;;
22359;SDS011;11347;52.030;4.690;2022-07-06T01:43:51;2.90;;;0.70;;
22359;SDS011;11347;52.030;4.690;2022-07-06T01:46:17;2.27;;;0.77;;
22359;SDS011;11347;52.030;4.690;2022-07-06T01:48:44;1.10;;;0.53;;
22359;SDS011;11347;52.030;4.690;2022-07-06T01:51:13;2.03;;;0.60;;
22359;SDS011;11347;52.030;4.690;2022-07-06T01:53:38;2.23;;;0.60;;
22359;SDS011;11347;52.030;4.690;2022-07-06T01:56:04;2.97;;;0.60;;
22359;SDS011;11347;52.030;4.690;2022-07-06T01:58:30;1.80;;;0.60;;
22359;SDS011;11347;52.030;4.690;2022-07-06T02:00:56;1.07;;;0.40;;
22359;SDS011;11347;52.030;4.690;2022-07-06T02:03:22;3.70;;;0.80;;
22359;SDS011;11347;52.030;4.690;2022-07-06T02:05:51;1.50;;;0.50;;
22359;SDS011;11347;52.030;4.690;2022-07-06T02:08:16;2.67;;;0.60;;
22359;SDS011;11347;52.030;4.690;2022-07-06T02:10:42;3.60;;;0.83;;
22359;SDS011;11347;52.030;4.690;2022-07-06T02:13:08;3.57;;;0.53;;
22359;SDS011;11347;52.030;4.690;2022-07-06T02:15:34;4.33;;;0.60;;
22359;SDS011;11347;52.030;4.690;2022-07-06T02:17:59;1.13;;;0.50;;
22359;SDS011;11347;52.030;4.690;2022-07-06T02:20:25;2.37;;;0.40;;
22359;SDS011;11347;52.030;4.690;2022-07-06T02:22:53;1.30;;;0.50;;
22359;SDS011;11347;52.030;4.690;2022-07-06T02:25:19;2.03;;;0.60;;
22359;SDS011;11347;52.030;4.690;2022-07-06T02:27:44;1.67;;;0.50;;
22359;SDS011;11347;52.030;4.690;2022-07-06T02:30:10;1.60;;;0.60;;
22359;SDS011;11347;52.030;4.690;2022-07-06T02:32:35;2.23;;;0.60;;
22359;SDS011;11347;52.030;4.690;2022-07-06T02:35:01;1.40;;;0.40;;
22359;SDS011;11347;52.030;4.690;2022-07-06T02:37:27;1.53;;;0.50;;
22359;SDS011;11347;52.030;4.690;2022-07-06T02:39:52;1.83;;;0.50;;
22359;SDS011;11347;52.030;4.690;2022-07-06T02:42:18;1.20;;;0.47;;
22359;SDS011;11347;52.030;4.690;2022-07-06T02:44:49;1.40;;;0.47;;
22359;SDS011;11347;52.030;4.690;2022-07-06T02:47:18;2.60;;;0.60;;
22359;SDS011;11347;52.030;4.690;2022-07-06T02:49:43;2.10;;;0.50;;
22359;SDS011;11347;52.030;4.690;2022-07-06T02:52:09;1.40;;;0.40;;
22359;SDS011;11347;52.030;4.690;2022-07-06T02:54:34;1.93;;;0.50;;
22359;SDS011;11347;52.030;4.690;2022-07-06T02:57:00;0.60;;;0.40;;
22359;SDS011;11347;52.030;4.690;2022-07-06T02:59:25;0.87;;;0.40;;
22359;SDS011;11347;52.030;4.690;2022-07-06T03:01:51;2.13;;;0.53;;
22359;SDS011;11347;52.030;4.690;2022-07-06T03:04:17;1.37;;;0.40;;
22359;SDS011;11347;52.030;4.690;2022-07-06T03:06:48;1.00;;;0.50;;
22359;SDS011;11347;52.030;4.690;2022-07-06T03:09:14;1.03;;;0.40;;
22359;SDS011;11347;52.030;4.690;2022-07-06T03:11:39;1.20;;;0.50;;
22359;SDS011;11347;52.030;4.690;2022-07-06T03:14:05;0.90;;;0.40;;
22359;SDS011;11347;52.030;4.690;2022-07-06T03:16:31;1.87;;;0.50;;
22359;SDS011;11347;52.030;4.690;2022-07-06T03:18:57;1.13;;;0.40;;
22359;SDS011;11347;52.030;4.690;2022-07-06T03:21:23;3.57;;;0.60;;
22359;SDS011;11347;52.030;4.690;2022-07-06T03:23:49;2.03;;;0.53;;
22359;SDS011;11347;52.030;4.690;2022-07-06T03:26:15;0.90;;;0.30;;
22359;SDS011;11347;52.030;4.690;2022-07-06T03:28:40;2.10;;;0.60;;
22359;SDS011;11347;52.030;4.690;2022-07-06T03:31:06;1.50;;;0.50;;
22359;SDS011;11347;52.030;4.690;2022-07-06T03:33:32;0.90;;;0.30;;
22359;SDS011;11347;52.030;4.690;2022-07-06T03:35:57;1.00;;;0.60;;
22359;SDS011;11347;52.030;4.690;2022-07-06T03:38:23;2.20;;;0.60;;
22359;SDS011;11347;52.030;4.690;2022-07-06T03:40:49;1.13;;;0.40;;
22359;SDS011;11347;52.030;4.690;2022-07-06T03:43:14;1.63;;;0.40;;
22359;SDS011;11347;52.030;4.690;2022-07-06T03:45:40;1.17;;;0.40;;
22359;SDS011;11347;52.030;4.690;2022-07-06T03:48:05;1.30;;;0.50;;
22359;SDS011;11347;52.030;4.690;2022-07-06T03:50:31;1.77;;;0.57;;
22359;SDS011;11347;52.030;4.690;2022-07-06T03:52:56;2.20;;;0.50;;
22359;SDS011;11347;52.030;4.690;2022-07-06T03:55:22;1.70;;;0.40;;
22359;SDS011;11347;52.030;4.690;2022-07-06T03:57:48;2.73;;;0.50;;
22359;SDS011;11347;52.030;4.690;2022-07-06T04:00:13;1.20;;;0.40;;
22359;SDS011;11347;52.030;4.690;2022-07-06T04:02:39;1.60;;;0.50;;
22359;SDS011;11347;52.030;4.690;2022-07-06T04:05:08;1.13;;;0.60;;
22359;SDS011;11347;52.030;4.690;2022-07-06T04:07:33;1.20;;;0.50;;
22359;SDS011;11347;52.030;4.690;2022-07-06T04:09:59;3.43;;;0.60;;
22359;SDS011;11347;52.030;4.690;2022-07-06T04:12:24;0.90;;;0.40;;
22359;SDS011;11347;52.030;4.690;2022-07-06T04:14:50;3.80;;;0.60;;
22359;SDS011;11347;52.030;4.690;2022-07-06T04:17:16;1.60;;;0.50;;
22359;SDS011;11347;52.030;4.690;2022-07-06T04:20:11;2.17;;;0.53;;
22359;SDS011;11347;52.030;4.690;2022-07-06T04:22:38;2.37;;;0.60;;
22359;SDS011;11347;52.030;4.690;2022-07-06T04:25:06;0.60;;;0.40;;
22359;SDS011;11347;52.030;4.690;2022-07-06T04:27:32;1.23;;;0.40;;
22359;SDS011;11347;52.030;4.690;2022-07-06T04:29:57;1.97;;;0.50;;
22359;SDS011;11347;52.030;4.690;2022-07-06T04:32:23;0.80;;;0.47;;
22359;SDS011;11347;52.030;4.690;2022-07-06T04:34:48;2.00;;;0.50;;
22359;SDS011;11347;52.030;4.690;2022-07-06T04:37:14;2.10;;;0.50;;
22359;SDS011;11347;52.030;4.690;2022-07-06T04:39:39;1.83;;;0.50;;
22359;SDS011;11347;52.030;4.690;2022-07-06T04:42:05;1.03;;;0.40;;
22359;SDS011;11347;52.030;4.690;2022-07-06T04:44:30;1.63;;;0.50;;
22359;SDS011;11347;52.030;4.690;2022-07-06T04:46:56;1.90;;;0.57;;
22359;SDS011;11347;52.030;4.690;2022-07-06T04:49:22;1.07;;;0.30;;
22359;SDS011;11347;52.030;4.690;2022-07-06T04:51:47;3.07;;;0.60;;
22359;SDS011;11347;52.030;4.690;2022-07-06T04:54:13;1.00;;;0.50;;
22359;SDS011;11347;52.030;4.690;2022-07-06T04:56:41;0.87;;;0.47;;
22359;SDS011;11347;52.030;4.690;2022-07-06T04:59:07;1.67;;;0.67;;
22359;SDS011;11347;52.030;4.690;2022-07-06T05:01:33;1.13;;;0.50;;
22359;SDS011;11347;52.030;4.690;2022-07-06T05:03:59;1.87;;;0.50;;
22359;SDS011;11347;52.030;4.690;2022-07-06T05:06:24;1.27;;;0.50;;
22359;SDS011;11347;52.030;4.690;2022-07-06T05:08:50;2.53;;;0.40;;
22359;SDS011;11347;52.030;4.690;2022-07-06T05:11:16;2.73;;;0.63;;
22359;SDS011;11347;52.030;4.690;2022-07-06T05:13:41;2.40;;;0.50;;
22359;SDS011;11347;52.030;4.690;2022-07-06T05:16:07;2.70;;;0.70;;
22359;SDS011;11347;52.030;4.690;2022-07-06T05:18:33;1.57;;;0.50;;
22359;SDS011;11347;52.030;4.690;2022-07-06T05:21:01;1.37;;;0.50;;
22359;SDS011;11347;52.030;4.690;2022-07-06T05:23:27;1.20;;;0.50;;
22359;SDS011;11347;52.030;4.690;2022-07-06T05:25:53;1.80;;;0.50;;
22359;SDS011;11347;52.030;4.690;2022-07-06T05:28:21;1.30;;;0.50;;
22359;SDS011;11347;52.030;4.690;2022-07-06T05:30:47;2.10;;;0.50;;
22359;SDS011;11347;52.030;4.690;2022-07-06T05:33:12;1.80;;;0.50;;
22359;SDS011;11347;52.030;4.690;2022-07-06T05:35:41;2.47;;;0.50;;
22359;SDS011;11347;52.030;4.690;2022-07-06T05:38:09;1.47;;;0.47;;
22359;SDS011;11347;52.030;4.690;2022-07-06T05:40:35;1.37;;;0.60;;
22359;SDS011;11347;52.030;4.690;2022-07-06T05:43:01;2.53;;;0.53;;
22359;SDS011;11347;52.030;4.690;2022-07-06T05:45:27;1.60;;;0.40;;
22359;SDS011;11347;52.030;4.690;2022-07-06T05:47:56;2.17;;;0.60;;
22359;SDS011;11347;52.030;4.690;2022-07-06T05:50:40;3.50;;;0.50;;
22359;SDS011;11347;52.030;4.690;2022-07-06T05:53:06;1.07;;;0.40;;
22359;SDS011;11347;52.030;4.690;2022-07-06T05:55:34;2.97;;;0.50;;
22359;SDS011;11347;52.030;4.690;2022-07-06T05:58:00;1.80;;;0.50;;
22359;SDS011;11347;52.030;4.690;2022-07-06T06:00:26;0.80;;;0.40;;
22359;SDS011;11347;52.030;4.690;2022-07-06T06:02:52;1.57;;;0.43;;
22359;SDS011;11347;52.030;4.690;2022-07-06T06:05:18;2.40;;;0.63;;
22359;SDS011;11347;52.030;4.690;2022-07-06T06:07:44;2.37;;;0.60;;
22359;SDS011;11347;52.030;4.690;2022-07-06T06:10:15;1.50;;;0.43;;
22359;SDS011;11347;52.030;4.690;2022-07-06T06:12:41;0.93;;;0.33;;
22359;SDS011;11347;52.030;4.690;2022-07-06T06:15:08;1.47;;;0.40;;
22359;SDS011;11347;52.030;4.690;2022-07-06T06:17:35;1.47;;;0.30;;
22359;SDS011;11347;52.030;4.690;2022-07-06T06:20:05;1.30;;;0.43;;
22359;SDS011;11347;52.030;4.690;2022-07-06T06:25:26;2.00;;;0.40;;
22359;SDS011;11347;52.030;4.690;2022-07-06T06:27:53;1.47;;;0.47;;
22359;SDS011;11347;52.030;4.690;2022-07-06T06:30:19;1.77;;;0.40;;
22359;SDS011;11347;52.030;4.690;2022-07-06T06:32:45;1.13;;;0.40;;
22359;SDS011;11347;52.030;4.690;2022-07-06T06:35:10;0.87;;;0.30;;
22359;SDS011;11347;52.030;4.690;2022-07-06T06:37:36;3.10;;;0.40;;
22359;SDS011;11347;52.030;4.690;2022-07-06T06:40:02;2.70;;;0.40;;
22359;SDS011;11347;52.030;4.690;2022-07-06T06:42:29;0.67;;;0.33;;
22359;SDS011;11347;52.030;4.690;2022-07-06T06:44:54;0.30;;;0.23;;
22359;SDS011;11347;52.030;4.690;2022-07-06T06:47:20;4.27;;;0.33;;
22359;SDS011;11347;52.030;4.690;2022-07-06T06:49:45;2.80;;;0.40;;
22359;SDS011;11347;52.030;4.690;2022-07-06T06:52:11;0.70;;;0.30;;
22359;SDS011;11347;52.030;4.690;2022-07-06T06:54:37;2.17;;;0.60;;
22359;SDS011;11347;52.030;4.690;2022-07-06T06:57:03;0.93;;;0.33;;
22359;SDS011;11347;52.030;4.690;2022-07-06T06:59:28;1.50;;;0.33;;
22359;SDS011;11347;52.030;4.690;2022-07-06T07:01:54;1.23;;;0.33;;
22359;SDS011;11347;52.030;4.690;2022-07-06T07:04:19;1.33;;;0.30;;
22359;SDS011;11347;52.030;4.690;2022-07-06T07:06:45;1.13;;;0.30;;
22359;SDS011;11347;52.030;4.690;2022-07-06T07:09:10;1.67;;;0.50;;
22359;SDS011;11347;52.030;4.690;2022-07-06T07:11:36;1.47;;;0.30;;
22359;SDS011;11347;52.030;4.690;2022-07-06T07:14:02;1.30;;;0.40;;
22359;SDS011;11347;52.030;4.690;2022-07-06T07:16:30;1.47;;;0.30;;
22359;SDS011;11347;52.030;4.690;2022-07-06T07:18:55;1.80;;;0.47;;
22359;SDS011;11347;52.030;4.690;2022-07-06T07:21:21;0.63;;;0.37;;
22359;SDS011;11347;52.030;4.690;2022-07-06T07:23:47;0.63;;;0.30;;
22359;SDS011;11347;52.030;4.690;2022-07-06T07:26:13;1.60;;;0.50;;
22359;SDS011;11347;52.030;4.690;2022-07-06T07:28:39;1.60;;;0.30;;
22359;SDS011;11347;52.030;4.690;2022-07-06T07:31:04;1.50;;;0.50;;
22359;SDS011;11347;52.030;4.690;2022-07-06T07:33:30;1.17;;;0.20;;
22359;SDS011;11347;52.030;4.690;2022-07-06T07:35:55;1.43;;;0.30;;
22359;SDS011;11347;52.030;4.690;2022-07-06T07:38:21;3.87;;;0.40;;
22359;SDS011;11347;52.030;4.690;2022-07-06T07:40:47;2.87;;;0.37;;
22359;SDS011;11347;52.030;4.690;2022-07-06T07:43:12;1.70;;;0.30;;
22359;SDS011;11347;52.030;4.690;2022-07-06T07:45:38;1.43;;;0.30;;
22359;SDS011;11347;52.030;4.690;2022-07-06T07:48:04;1.70;;;0.33;;
22359;SDS011;11347;52.030;4.690;2022-07-06T07:50:30;1.00;;;0.30;;
22359;SDS011;11347;52.030;4.690;2022-07-06T07:52:56;0.67;;;0.30;;
22359;SDS011;11347;52.030;4.690;2022-07-06T07:55:21;1.53;;;0.33;;
22359;SDS011;11347;52.030;4.690;2022-07-06T07:57:47;0.40;;;0.30;;
22359;SDS011;11347;52.030;4.690;2022-07-06T08:00:12;2.50;;;0.50;;
22359;SDS011;11347;52.030;4.690;2022-07-06T08:02:41;3.07;;;0.40;;
22359;SDS011;11347;52.030;4.690;2022-07-06T08:05:07;1.90;;;0.30;;
22359;SDS011;11347;52.030;4.690;2022-07-06T08:07:41;1.47;;;0.30;;
22359;SDS011;11347;52.030;4.690;2022-07-06T08:10:07;0.70;;;0.30;;
22359;SDS011;11347;52.030;4.690;2022-07-06T08:12:33;1.03;;;0.40;;
22359;SDS011;11347;52.030;4.690;2022-07-06T08:14:58;1.03;;;0.30;;
22359;SDS011;11347;52.030;4.690;2022-07-06T08:17:24;0.97;;;0.30;;
22359;SDS011;11347;52.030;4.690;2022-07-06T08:19:53;1.27;;;0.40;;
22359;SDS011;11347;52.030;4.690;2022-07-06T08:22:18;0.43;;;0.20;;
22359;SDS011;11347;52.030;4.690;2022-07-06T08:24:44;1.63;;;0.30;;
22359;SDS011;11347;52.030;4.690;2022-07-06T08:27:09;1.17;;;0.30;;
22359;SDS011;11347;52.030;4.690;2022-07-06T08:29:35;0.80;;;0.27;;
22359;SDS011;11347;52.030;4.690;2022-07-06T08:32:01;0.80;;;0.40;;
22359;SDS011;11347;52.030;4.690;2022-07-06T08:34:26;3.33;;;0.40;;
22359;SDS011;11347;52.030;4.690;2022-07-06T08:36:52;0.70;;;0.30;;
22359;SDS011;11347;52.030;4.690;2022-07-06T08:39:17;3.17;;;0.37;;
22359;SDS011;11347;52.030;4.690;2022-07-06T08:41:43;0.90;;;0.30;;
22359;SDS011;11347;52.030;4.690;2022-07-06T08:44:13;0.73;;;0.20;;
22359;SDS011;11347;52.030;4.690;2022-07-06T08:46:39;1.50;;;0.20;;
22359;SDS011;11347;52.030;4.690;2022-07-06T08:49:06;0.73;;;0.13;;
22359;SDS011;11347;52.030;4.690;2022-07-06T08:51:34;1.97;;;0.30;;
22359;SDS011;11347;52.030;4.690;2022-07-06T08:54:01;0.83;;;0.40;;
22359;SDS011;11347;52.030;4.690;2022-07-06T08:56:27;0.97;;;0.30;;
22359;SDS011;11347;52.030;4.690;2022-07-06T08:58:54;1.13;;;0.30;;
22359;SDS011;11347;52.030;4.690;2022-07-06T09:01:20;0.60;;;0.37;;
22359;SDS011;11347;52.030;4.690;2022-07-06T09:03:47;1.10;;;0.23;;
22359;SDS011;11347;52.030;4.690;2022-07-06T09:06:26;1.73;;;0.60;;
22359;SDS011;11347;52.030;4.690;2022-07-06T09:08:55;3.03;;;0.50;;
22359;SDS011;11347;52.030;4.690;2022-07-06T09:11:22;1.00;;;0.30;;
22359;SDS011;11347;52.030;4.690;2022-07-06T09:13:49;0.80;;;0.30;;
22359;SDS011;11347;52.030;4.690;2022-07-06T09:16:24;1.57;;;0.40;;
22359;SDS011;11347;52.030;4.690;2022-07-06T09:18:54;0.87;;;0.30;;
22359;SDS011;11347;52.030;4.690;2022-07-06T09:21:27;1.10;;;0.30;;
22359;SDS011;11347;52.030;4.690;2022-07-06T09:23:57;0.80;;;0.20;;
22359;SDS011;11347;52.030;4.690;2022-07-06T09:26:23;1.00;;;0.30;;
22359;SDS011;11347;52.030;4.690;2022-07-06T09:28:56;1.17;;;0.30;;
22359;SDS011;11347;52.030;4.690;2022-07-06T09:31:24;0.63;;;0.20;;
22359;SDS011;11347;52.030;4.690;2022-07-06T09:34:00;1.13;;;0.20;;
22359;SDS011;11347;52.030;4.690;2022-07-06T09:39:15;0.83;;;0.20;;
22359;SDS011;11347;52.030;4.690;2022-07-06T09:41:44;0.40;;;0.20;;
22359;SDS011;11347;52.030;4.690;2022-07-06T09:44:17;0.90;;;0.27;;
22359;SDS011;11347;52.030;4.690;2022-07-06T09:46:46;2.60;;;0.40;;
22359;SDS011;11347;52.030;4.690;2022-07-06T09:49:12;0.83;;;0.30;;
22359;SDS011;11347;52.030;4.690;2022-07-06T09:51:42;0.30;;;0.20;;
22359;SDS011;11347;52.030;4.690;2022-07-06T09:54:10;0.83;;;0.30;;
22359;SDS011;11347;52.030;4.690;2022-07-06T09:56:36;0.47;;;0.20;;
22359;SDS011;11347;52.030;4.690;2022-07-06T09:59:12;1.10;;;0.30;;
22359;SDS011;11347;52.030;4.690;2022-07-06T10:01:42;2.70;;;0.33;;
22359;SDS011;11347;52.030;4.690;2022-07-06T10:04:09;1.00;;;0.30;;
22359;SDS011;11347;52.030;4.690;2022-07-06T10:06:40;1.07;;;0.30;;
22359;SDS011;11347;52.030;4.690;2022-07-06T10:09:07;0.93;;;0.30;;
22359;SDS011;11347;52.030;4.690;2022-07-06T10:11:40;0.90;;;0.40;;
22359;SDS011;11347;52.030;4.690;2022-07-06T10:14:17;0.90;;;0.20;;
22359;SDS011;11347;52.030;4.690;2022-07-06T10:16:45;0.73;;;0.30;;
22359;SDS011;11347;52.030;4.690;2022-07-06T10:19:12;1.13;;;0.30;;
22359;SDS011;11347;52.030;4.690;2022-07-06T10:21:39;0.30;;;0.27;;
22359;SDS011;11347;52.030;4.690;2022-07-06T10:24:06;2.10;;;0.30;;
22359;SDS011;11347;52.030;4.690;2022-07-06T10:26:33;1.30;;;0.37;;
22359;SDS011;11347;52.030;4.690;2022-07-06T10:29:00;2.97;;;0.57;;
22359;SDS011;11347;52.030;4.690;2022-07-06T10:31:34;2.33;;;0.40;;
22359;SDS011;11347;52.030;4.690;2022-07-06T10:34:04;0.60;;;0.30;;
22359;SDS011;11347;52.030;4.690;2022-07-06T10:36:31;1.60;;;0.40;;
22359;SDS011;11347;52.030;4.690;2022-07-06T10:39:03;2.60;;;0.50;;
22359;SDS011;11347;52.030;4.690;2022-07-06T10:41:49;1.23;;;0.37;;
22359;SDS011;11347;52.030;4.690;2022-07-06T10:44:24;1.90;;;0.50;;
22359;SDS011;11347;52.030;4.690;2022-07-06T10:46:57;0.90;;;0.30;;
22359;SDS011;11347;52.030;4.690;2022-07-06T10:49:24;1.17;;;0.40;;
22359;SDS011;11347;52.030;4.690;2022-07-06T10:51:51;1.50;;;0.40;;
22359;SDS011;11347;52.030;4.690;2022-07-06T10:54:17;3.27;;;0.57;;
22359;SDS011;11347;52.030;4.690;2022-07-06T10:56:46;0.63;;;0.30;;
22359;SDS011;11347;52.030;4.690;2022-07-06T10:59:20;1.00;;;0.30;;
22359;SDS011;11347;52.030;4.690;2022-07-06T11:02:31;2.20;;;0.40;;
22359;SDS011;11347;52.030;4.690;2022-07-06T11:04:40;1.50;;;0.37;;
22359;SDS011;11347;52.030;4.690;2022-07-06T11:07:08;1.23;;;0.40;;
22359;SDS011;11347;52.030;4.690;2022-07-06T11:09:35;0.70;;;0.40;;
22359;SDS011;11347;52.030;4.690;2022-07-06T11:12:12;3.30;;;1.13;;
22359;SDS011;11347;52.030;4.690;2022-07-06T11:14:41;1.97;;;0.67;;
22359;SDS011;11347;52.030;4.690;2022-07-06T11:17:09;2.43;;;0.30;;
22359;SDS011;11347;52.030;4.690;2022-07-06T11:19:35;1.50;;;0.50;;
22359;SDS011;11347;52.030;4.690;2022-07-06T11:22:08;3.03;;;0.40;;
22359;SDS011;11347;52.030;4.690;2022-07-06T11:24:35;1.27;;;0.50;;
22359;SDS011;11347;52.030;4.690;2022-07-06T11:27:02;0.87;;;0.40;;
22359;SDS011;11347;52.030;4.690;2022-07-06T11:29:29;1.20;;;0.40;;
22359;SDS011;11347;52.030;4.690;2022-07-06T11:31:56;1.50;;;0.40;;
22359;SDS011;11347;52.030;4.690;2022-07-06T11:34:25;1.90;;;0.50;;
22359;SDS011;11347;52.030;4.690;2022-07-06T11:36:59;1.27;;;0.30;;
22359;SDS011;11347;52.030;4.690;2022-07-06T11:39:33;2.07;;;0.50;;
22359;SDS011;11347;52.030;4.690;2022-07-06T11:42:00;1.43;;;0.50;;
22359;SDS011;11347;52.030;4.690;2022-07-06T11:44:28;1.30;;;0.50;;
22359;SDS011;11347;52.030;4.690;2022-07-06T11:46:54;2.50;;;0.50;;
22359;SDS011;11347;52.030;4.690;2022-07-06T11:49:27;0.47;;;0.33;;
22359;SDS011;11347;52.030;4.690;2022-07-06T11:51:53;1.40;;;0.50;;
22359;SDS011;11347;52.030;4.690;2022-07-06T11:54:19;3.80;;;0.57;;
22359;SDS011;11347;52.030;4.690;2022-07-06T11:56:56;2.97;;;0.57;;
22359;SDS011;11347;52.030;4.690;2022-07-06T11:59:27;1.43;;;0.40;;
22359;SDS011;11347;52.030;4.690;2022-07-06T12:04:33;1.40;;;0.43;;
22359;SDS011;11347;52.030;4.690;2022-07-06T12:07:04;1.17;;;0.50;;
22359;SDS011;11347;52.030;4.690;2022-07-06T12:09:33;1.57;;;0.50;;
22359;SDS011;11347;52.030;4.690;2022-07-06T12:11:59;1.33;;;0.50;;
22359;SDS011;11347;52.030;4.690;2022-07-06T12:14:29;2.43;;;0.50;;
22359;SDS011;11347;52.030;4.690;2022-07-06T12:17:03;3.70;;;0.60;;
22359;SDS011;11347;52.030;4.690;2022-07-06T12:19:33;2.67;;;0.60;;
22359;SDS011;11347;52.030;4.690;2022-07-06T12:22:00;2.20;;;0.70;;
22359;SDS011;11347;52.030;4.690;2022-07-06T12:24:28;2.20;;;0.40;;
22359;SDS011;11347;52.030;4.690;2022-07-06T12:26:58;4.03;;;0.57;;
22359;SDS011;11347;52.030;4.690;2022-07-06T12:29:36;1.53;;;0.70;;
22359;SDS011;11347;52.030;4.690;2022-07-06T12:32:02;2.80;;;0.57;;
22359;SDS011;11347;52.030;4.690;2022-07-06T12:34:28;2.17;;;0.80;;
22359;SDS011;11347;52.030;4.690;2022-07-06T12:37:02;2.03;;;0.63;;
22359;SDS011;11347;52.030;4.690;2022-07-06T12:39:31;2.17;;;0.50;;
22359;SDS011;11347;52.030;4.690;2022-07-06T12:42:05;1.73;;;0.60;;
22359;SDS011;11347;52.030;4.690;2022-07-06T12:44:41;2.33;;;0.60;;
22359;SDS011;11347;52.030;4.690;2022-07-06T12:47:09;3.10;;;0.90;;
22359;SDS011;11347;52.030;4.690;2022-07-06T12:49:36;1.60;;;0.50;;
22359;SDS011;11347;52.030;4.690;2022-07-06T12:54:49;3.53;;;0.70;;
22359;SDS011;11347;52.030;4.690;2022-07-06T13:02:19;4.10;;;0.70;;
22359;SDS011;11347;52.030;4.690;2022-07-06T13:04:59;2.83;;;0.60;;
22359;SDS011;11347;52.030;4.690;2022-07-06T13:07:26;2.33;;;0.60;;
22359;SDS011;11347;52.030;4.690;2022-07-06T13:09:53;1.47;;;0.63;;
22359;SDS011;11347;52.030;4.690;2022-07-06T13:12:19;1.60;;;0.63;;
22359;SDS011;11347;52.030;4.690;2022-07-06T13:14:45;1.13;;;0.40;;
22359;SDS011;11347;52.030;4.690;2022-07-06T13:17:10;2.63;;;0.87;;
22359;SDS011;11347;52.030;4.690;2022-07-06T13:19:36;4.03;;;0.50;;
22359;SDS011;11347;52.030;4.690;2022-07-06T13:22:02;6.03;;;0.90;;
22359;SDS011;11347;52.030;4.690;2022-07-06T13:24:27;2.97;;;0.70;;
22359;SDS011;11347;52.030;4.690;2022-07-06T13:26:53;4.97;;;0.93;;
22359;SDS011;11347;52.030;4.690;2022-07-06T13:29:26;5.03;;;1.03;;
22359;SDS011;11347;52.030;4.690;2022-07-06T13:31:51;1.90;;;0.60;;
22359;SDS011;11347;52.030;4.690;2022-07-06T13:34:17;3.57;;;0.70;;
22359;SDS011;11347;52.030;4.690;2022-07-06T13:36:43;3.60;;;0.83;;
22359;SDS011;11347;52.030;4.690;2022-07-06T13:39:09;2.67;;;0.80;;
22359;SDS011;11347;52.030;4.690;2022-07-06T13:41:35;2.67;;;0.80;;
22359;SDS011;11347;52.030;4.690;2022-07-06T13:44:00;2.93;;;0.83;;
22359;SDS011;11347;52.030;4.690;2022-07-06T13:46:30;3.10;;;0.50;;
22359;SDS011;11347;52.030;4.690;2022-07-06T13:48:58;2.37;;;0.70;;
22359;SDS011;11347;52.030;4.690;2022-07-06T13:51:24;2.77;;;0.60;;
22359;SDS011;11347;52.030;4.690;2022-07-06T13:53:51;3.10;;;0.70;;
22359;SDS011;11347;52.030;4.690;2022-07-06T13:56:20;3.20;;;0.80;;
22359;SDS011;11347;52.030;4.690;2022-07-06T13:58:46;3.90;;;0.60;;
22359;SDS011;11347;52.030;4.690;2022-07-06T14:01:17;2.27;;;0.90;;
22359;SDS011;11347;52.030;4.690;2022-07-06T14:03:44;3.80;;;0.80;;
22359;SDS011;11347;52.030;4.690;2022-07-06T14:06:09;1.63;;;0.60;;
22359;SDS011;11347;52.030;4.690;2022-07-06T14:08:35;2.07;;;0.73;;
22359;SDS011;11347;52.030;4.690;2022-07-06T14:11:03;3.70;;;0.80;;
22359;SDS011;11347;52.030;4.690;2022-07-06T14:13:30;2.87;;;0.87;;
22359;SDS011;11347;52.030;4.690;2022-07-06T14:15:56;4.30;;;1.03;;
22359;SDS011;11347;52.030;4.690;2022-07-06T14:18:24;3.10;;;0.90;;
22359;SDS011;11347;52.030;4.690;2022-07-06T14:20:50;3.23;;;0.90;;
22359;SDS011;11347;52.030;4.690;2022-07-06T14:23:17;3.83;;;1.00;;
22359;SDS011;11347;52.030;4.690;2022-07-06T14:25:46;3.93;;;1.00;;
22359;SDS011;11347;52.030;4.690;2022-07-06T14:28:13;3.73;;;1.10;;
22359;SDS011;11347;52.030;4.690;2022-07-06T14:30:39;3.13;;;0.97;;
22359;SDS011;11347;52.030;4.690;2022-07-06T14:33:06;4.63;;;0.90;;
22359;SDS011;11347;52.030;4.690;2022-07-06T14:35:40;3.37;;;0.93;;
22359;SDS011;11347;52.030;4.690;2022-07-06T14:38:12;6.63;;;1.40;;
22359;SDS011;11347;52.030;4.690;2022-07-06T14:40:41;3.27;;;1.13;;
22359;SDS011;11347;52.030;4.690;2022-07-06T14:43:08;2.87;;;1.30;;
22359;SDS011;11347;52.030;4.690;2022-07-06T14:45:34;2.90;;;1.13;;
22359;SDS011;11347;52.030;4.690;2022-07-06T14:48:02;3.47;;;1.00;;
22359;SDS011;11347;52.030;4.690;2022-07-06T14:50:31;3.07;;;1.10;;
22359;SDS011;11347;52.030;4.690;2022-07-06T14:52:56;3.20;;;1.13;;
22359;SDS011;11347;52.030;4.690;2022-07-06T14:55:22;4.67;;;1.00;;
22359;SDS011;11347;52.030;4.690;2022-07-06T14:57:48;4.10;;;0.90;;
22359;SDS011;11347;52.030;4.690;2022-07-06T15:00:14;4.87;;;1.13;;
22359;SDS011;11347;52.030;4.690;2022-07-06T15:02:40;4.13;;;1.10;;
22359;SDS011;11347;52.030;4.690;2022-07-06T15:05:06;5.50;;;1.10;;